Airfield :







YOU CAN JOIN US ON...

 
LOGIN :

Register | Disclaimer

   EN    FR    IT 

 









Legend :    VFR   Marginal VFR   IFR   Intensive IFR   Very Intensive IFR
Visi :
Ceiling :
>= 8 km
>= 3000ft
5 to 8 km
1000 to 3000 ft
1500m to 5 km
500 to 1000 ft
800 to 1500m
200 to 500 ft
< 800m
< 200 ft
Symbols :   Thunderstorms  Fog  Heavy snow  Heavy precipitations  Wind > 20 kt







- Airport Elevation : 285 ft
- IATA code : ALB


KALB - Albany International

CURRENT METAR :
  • 252351Z 28009KT 10SM FEW260 02/M16 A3010 RMK AO2 SLP195 T00221156 10078 20022 53005

EXPIRED METARs :
  • 252251Z 28011KT 10SM SCT250 04/M15 A3009 RMK AO2 SLP191 T00391150
  • 252151Z 29010KT 10SM BKN250 05/M18 A3009 RMK AO2 SLP191 T00501178

TAF KALB
Valid from the 26 at 00:00 until the 27 at 00:00 UTC


252328Z 2600/2624 30008KT P6SM SKC
FM261300 32010G17KT P6SM SKC
KZBW FIR / North America



MET'MAP, your aeronautical weather chart ! - Copyright ORBIFLY December 2007 - Disclaimer

ORBIFLY MET'MAP TEAM :

Programming & Development : Alexandra Zaïnal
Concept & Development : Baudouin d'Aumeries
Co-Development & Prog : Marc-Olivier Méhu
Technical & hardware support : Manuel Goepfert

Contact : metmap@orbifly.com




SOURCES & CREDITS :

   NOAA